createdAt,value
2022-09-01T00:01:41.595Z,17.63
2022-09-01T00:05:46.321Z,16.87
2022-09-01T00:09:49.953Z,16.07
2022-09-01T00:13:54.136Z,15.57
2022-09-01T00:17:58.853Z,17.57
2022-09-01T00:22:02.629Z,17.23
2022-09-01T00:26:06.625Z,16.17
2022-09-01T00:30:11.157Z,15.60
2022-09-01T00:34:16.235Z,16.23
2022-09-01T00:38:20.520Z,15.90
2022-09-01T00:42:24.568Z,15.70
2022-09-01T00:46:30.685Z,14.87
2022-09-01T00:50:35.620Z,16.13
2022-09-01T00:54:44.854Z,14.50
2022-09-01T00:58:48.230Z,14.30
2022-09-01T01:02:56.205Z,14.83
2022-09-01T01:07:03.240Z,13.90
2022-09-01T01:11:09.738Z,14.27
2022-09-01T01:15:14.603Z,11.73
2022-09-01T01:19:39.143Z,15.10
2022-09-01T01:23:51.101Z,15.40
2022-09-01T01:28:06.043Z,14.80
2022-09-01T01:32:13.460Z,13.67
2022-09-01T01:36:32.517Z,15.53
2022-09-01T01:40:36.253Z,13.63
2022-09-01T01:44:42.797Z,14.00
2022-09-01T01:48:47.229Z,13.83
2022-09-01T01:52:55.166Z,14.73
2022-09-01T01:57:04.634Z,14.10
2022-09-01T02:01:11.037Z,13.60
2022-09-01T02:05:17.121Z,13.10
2022-09-01T02:09:23.433Z,13.50
2022-09-01T02:13:31.280Z,14.33
2022-09-01T02:17:36.227Z,15.40
2022-09-01T02:21:50.112Z,15.77
2022-09-01T02:26:15.476Z,12.90
2022-09-01T02:30:19.622Z,16.00
2022-09-01T02:34:27.831Z,13.30
2022-09-01T02:38:33.864Z,14.77
2022-09-01T02:42:41.005Z,14.07
2022-09-01T02:46:46.119Z,15.27
2022-09-01T02:50:50.831Z,15.20
2022-09-01T02:54:55.741Z,13.63
2022-09-01T02:59:00.408Z,14.57
2022-09-01T03:03:04.946Z,14.60
2022-09-01T03:07:10.732Z,15.50
2022-09-01T03:11:14.271Z,16.37
2022-09-01T03:15:17.646Z,15.60
2022-09-01T03:19:21.645Z,15.73
2022-09-01T03:23:28.283Z,15.30
2022-09-01T03:27:31.857Z,17.07
2022-09-01T03:31:35.701Z,16.97
2022-09-01T03:35:39.492Z,14.83
2022-09-01T03:39:44.631Z,14.07
2022-09-01T03:43:49.024Z,14.80
2022-09-01T03:47:52.941Z,15.50
2022-09-01T03:51:57.682Z,14.20
2022-09-01T03:56:04.563Z,13.83
2022-09-01T04:00:15.732Z,12.50
2022-09-01T04:04:20.622Z,10.40
2022-09-01T04:08:33.075Z,12.53
2022-09-01T04:12:38.939Z,10.63
2022-09-01T04:16:59.792Z,12.90
2022-09-01T04:21:03.290Z,11.23
2022-09-01T04:25:07.375Z,10.40
2022-09-01T04:29:12.940Z,11.13
2022-09-01T04:33:17.575Z,14.00
2022-09-01T04:37:24.242Z,12.90
2022-09-01T04:41:32.290Z,13.00
2022-09-01T04:45:38.160Z,12.73
2022-09-01T04:49:45.656Z,11.57
2022-09-01T04:53:49.894Z,11.87
2022-09-01T04:57:53.351Z,11.60
2022-09-01T05:02:00.396Z,11.07
2022-09-01T05:06:04.119Z,11.67
2022-09-01T05:10:08.478Z,12.03
2022-09-01T05:14:12.605Z,12.50
2022-09-01T05:18:23.527Z,11.60
2022-09-01T05:22:27.163Z,13.40
2022-09-01T05:26:35.007Z,12.73
2022-09-01T05:30:40.542Z,14.50
2022-09-01T05:34:46.264Z,14.40
2022-09-01T05:38:52.486Z,14.10
2022-09-01T05:42:56.221Z,14.67
2022-09-01T05:47:00.999Z,13.10
2022-09-01T05:51:17.616Z,13.27
2022-09-01T05:55:27.853Z,13.03
2022-09-01T05:59:32.838Z,13.70
2022-09-01T06:03:38.260Z,13.87
2022-09-01T06:07:44.450Z,13.90
2022-09-01T06:11:48.365Z,14.93
2022-09-01T06:15:53.804Z,13.90
2022-09-01T06:19:58.690Z,14.23
2022-09-01T06:24:07.229Z,13.50
2022-09-01T06:28:12.430Z,10.70
2022-09-01T06:32:17.162Z,11.43
2022-09-01T06:36:21.597Z,9.20
2022-09-01T06:40:26.619Z,7.80
2022-09-01T06:44:32.516Z,7.90
2022-09-01T06:48:35.921Z,7.00
2022-09-01T07:01:30.637Z,6.30
2022-09-01T07:10:17.706Z,7.20
2022-09-01T07:14:23.230Z,6.37
2022-09-01T07:18:28.644Z,5.40
2022-09-01T07:22:36.095Z,5.33
2022-09-01T07:35:37.204Z,3.77
2022-09-01T07:42:30.578Z,4.87
2022-09-01T07:44:08.456Z,4.30
2022-09-01T07:48:35.984Z,4.13
2022-09-01T07:52:43.321Z,4.40
2022-09-01T07:56:47.492Z,4.70
2022-09-01T08:00:51.536Z,4.20
2022-09-01T08:04:56.638Z,4.03
2022-09-01T08:09:01.317Z,3.70
2022-09-01T08:13:06.030Z,3.80
2022-09-01T08:17:33.130Z,4.20
2022-09-01T08:21:35.533Z,4.33
2022-09-01T08:25:39.228Z,3.30
2022-09-01T08:29:43.722Z,4.07
2022-09-01T08:33:48.752Z,4.00
2022-09-01T08:37:54.248Z,4.03
2022-09-01T08:42:06.922Z,3.70
2022-09-01T08:46:18.362Z,3.40
2022-09-01T08:50:22.358Z,3.20
2022-09-01T08:54:33.625Z,2.90
2022-09-01T08:58:37.067Z,3.00
2022-09-01T09:02:58.580Z,3.00
2022-09-01T09:07:08.726Z,2.87
2022-09-01T09:11:24.219Z,3.13
2022-09-01T09:15:32.636Z,2.60
2022-09-01T09:19:40.648Z,2.10
2022-09-01T09:23:47.770Z,2.67
2022-09-01T09:28:01.002Z,2.73
2022-09-01T09:32:22.529Z,2.90
2022-09-01T09:36:33.793Z,2.70
2022-09-01T09:41:06.671Z,2.87
2022-09-01T09:45:04.592Z,3.10
2022-09-01T09:49:14.665Z,2.90
2022-09-01T09:53:27.867Z,2.30
2022-09-01T09:57:33.419Z,2.77
2022-09-01T10:01:38.201Z,2.90
2022-09-01T10:05:48.003Z,2.23
2022-09-01T10:09:52.600Z,2.13
2022-09-01T10:13:56.438Z,2.20
2022-09-01T10:22:33.057Z,2.17
2022-09-01T10:26:40.093Z,1.97
2022-09-01T10:30:46.987Z,2.17
2022-09-01T10:34:52.117Z,2.40
2022-09-01T10:39:04.641Z,2.97
2022-09-01T10:43:37.522Z,1.87
2022-09-01T10:47:41.725Z,2.50
2022-09-01T10:51:55.229Z,2.20
2022-09-01T10:56:19.228Z,2.30
2022-09-01T11:05:19.828Z,2.23
2022-09-01T11:09:28.177Z,2.10
2022-09-01T11:13:38.455Z,2.17
2022-09-01T11:17:57.518Z,2.00
2022-09-01T11:22:15.308Z,3.17
2022-09-01T11:26:48.016Z,3.37
2022-09-01T11:30:55.793Z,4.03
2022-09-01T11:35:01.465Z,2.80
2022-09-01T11:39:08.714Z,3.13
2022-09-01T11:43:17.669Z,3.73
2022-09-01T11:47:26.731Z,3.10
2022-09-01T11:51:39.097Z,3.23
2022-09-01T11:55:46.594Z,3.70
2022-09-01T11:59:53.867Z,2.83
2022-09-01T12:04:00.012Z,2.77
2022-09-01T12:08:07.325Z,3.00
2022-09-01T12:12:32.379Z,3.40
2022-09-01T12:16:40.266Z,2.50
2022-09-01T12:20:43.680Z,3.20
2022-09-01T12:24:48.758Z,3.10
2022-09-01T12:28:53.234Z,2.70
2022-09-01T12:37:25.053Z,3.00
2022-09-01T12:41:36.070Z,2.47
2022-09-01T12:45:41.709Z,2.90
2022-09-01T12:49:52.116Z,2.50
2022-09-01T12:53:59.119Z,2.67
2022-09-01T12:58:05.332Z,2.20
2022-09-01T13:02:28.091Z,2.47
2022-09-01T13:06:33.482Z,2.40
2022-09-01T13:10:40.029Z,2.60
2022-09-01T13:14:43.427Z,2.90
2022-09-01T13:23:12.873Z,2.70
2022-09-01T13:27:23.654Z,2.37
2022-09-01T13:31:29.651Z,2.70
2022-09-01T13:35:34.378Z,2.93
2022-09-01T13:39:39.322Z,2.60
2022-09-01T13:48:17.526Z,2.30
2022-09-01T13:52:10.981Z,2.20
2022-09-01T13:56:15.801Z,2.30
2022-09-01T14:00:24.521Z,2.40
2022-09-01T14:04:27.983Z,2.50
2022-09-01T14:08:33.501Z,2.83
2022-09-01T14:12:39.713Z,2.53
2022-09-01T14:16:43.162Z,2.43
2022-09-01T14:20:49.022Z,2.67
2022-09-01T14:24:52.476Z,2.20
2022-09-01T14:28:57.173Z,2.27
2022-09-01T14:33:01.685Z,2.40
2022-09-01T14:37:05.707Z,2.20
2022-09-01T14:41:09.199Z,2.10
2022-09-01T14:45:16.261Z,2.17
2022-09-01T14:49:22.519Z,1.30
2022-09-01T14:53:26.190Z,1.63
2022-09-01T14:57:38.005Z,2.10
2022-09-01T15:01:43.611Z,1.73
2022-09-01T15:05:46.982Z,1.43
2022-09-01T15:09:50.361Z,1.40
2022-09-01T15:13:53.737Z,1.50
2022-09-01T15:17:58.534Z,1.63
2022-09-01T15:22:01.851Z,1.47
2022-09-01T15:26:05.339Z,1.63
2022-09-01T15:30:14.666Z,1.27
2022-09-01T15:34:19.751Z,1.40
2022-09-01T15:38:27.197Z,2.00
2022-09-01T15:42:36.075Z,1.60
2022-09-01T15:46:41.301Z,1.60
2022-09-01T15:50:46.262Z,1.50
2022-09-01T15:54:49.591Z,1.60
2022-09-01T15:59:01.641Z,1.60
2022-09-01T16:03:05.962Z,1.70
2022-09-01T16:07:11.040Z,1.47
2022-09-01T16:11:14.328Z,1.33
2022-09-01T16:15:20.024Z,1.67
2022-09-01T16:19:33.646Z,1.60
2022-09-01T16:23:42.678Z,1.73
2022-09-01T16:27:47.604Z,1.20
2022-09-01T16:31:55.165Z,1.67
2022-09-01T16:36:11.586Z,1.73
2022-09-01T16:40:29.977Z,1.73
2022-09-01T16:44:44.976Z,1.40
2022-09-01T16:48:56.063Z,1.23
2022-09-01T16:53:20.597Z,1.50
2022-09-01T16:57:35.155Z,1.90
2022-09-01T17:01:48.970Z,2.00
2022-09-01T17:05:57.510Z,1.70
2022-09-01T17:10:06.533Z,1.60
2022-09-01T17:14:27.700Z,1.50
2022-09-01T17:18:35.216Z,1.83
2022-09-01T17:22:39.927Z,2.10
2022-09-01T17:26:50.907Z,1.77
2022-09-01T17:31:01.934Z,2.40
2022-09-01T17:35:15.231Z,1.83
2022-09-01T17:39:37.087Z,1.93
2022-09-01T17:43:53.943Z,1.90
2022-09-01T17:48:09.215Z,1.50
2022-09-01T17:52:19.345Z,1.80
2022-09-01T17:56:37.362Z,1.97
2022-09-01T18:00:45.431Z,2.03
2022-09-01T18:05:01.155Z,2.20
2022-09-01T18:09:06.461Z,2.10
2022-09-01T18:13:25.893Z,2.00
2022-09-01T18:17:43.644Z,2.50
2022-09-01T18:21:54.384Z,2.03
2022-09-01T18:26:03.976Z,2.00
2022-09-01T18:30:08.664Z,2.20
2022-09-01T18:34:24.778Z,1.80
2022-09-01T18:38:44.090Z,2.33
2022-09-01T18:42:57.338Z,1.90
2022-09-01T18:47:05.570Z,1.97
2022-09-01T18:51:17.220Z,1.90
2022-09-01T18:55:28.170Z,2.27
2022-09-01T18:59:55.384Z,2.23
2022-09-01T19:04:10.035Z,2.50
2022-09-01T19:08:25.593Z,2.10
2022-09-01T19:12:39.320Z,2.17
2022-09-01T19:16:56.574Z,2.53
2022-09-01T19:21:07.502Z,1.80
2022-09-01T19:25:31.174Z,2.20
2022-09-01T19:29:45.718Z,2.07
2022-09-01T19:33:52.104Z,2.37
2022-09-01T19:37:55.807Z,1.93
2022-09-01T19:42:05.463Z,2.20
2022-09-01T19:46:23.233Z,2.10
2022-09-01T19:50:33.043Z,1.87
2022-09-01T19:54:44.902Z,2.20
2022-09-01T19:58:57.808Z,2.07
2022-09-01T20:03:09.409Z,2.30
2022-09-01T20:07:23.818Z,2.90
2022-09-01T20:11:44.354Z,2.50
2022-09-01T20:15:52.883Z,2.00
2022-09-01T20:20:07.627Z,2.40
2022-09-01T20:24:19.054Z,2.63
2022-09-01T20:28:32.097Z,2.80
2022-09-01T20:32:42.498Z,3.00
2022-09-01T20:36:51.655Z,2.10
2022-09-01T20:40:57.288Z,2.90
2022-09-01T20:45:04.328Z,3.43
2022-09-01T20:49:07.632Z,2.90
2022-09-01T20:53:24.267Z,2.80
2022-09-01T20:57:38.844Z,2.40
2022-09-01T21:01:48.621Z,2.90
2022-09-01T21:05:57.695Z,2.90
2022-09-01T21:10:21.020Z,2.90
2022-09-01T21:14:36.006Z,2.80
2022-09-01T21:18:49.665Z,2.97
2022-09-01T21:22:55.278Z,2.60
2022-09-01T21:27:03.023Z,2.50
2022-09-01T21:31:09.037Z,2.80
2022-09-01T21:35:14.362Z,2.83
2022-09-01T21:39:18.525Z,2.60
2022-09-01T21:43:26.524Z,2.60
2022-09-01T21:47:30.272Z,3.03
2022-09-01T21:51:34.069Z,2.47
2022-09-01T21:55:37.950Z,3.03
2022-09-01T21:59:42.859Z,2.70
2022-09-01T22:03:46.077Z,2.27
2022-09-01T22:07:49.627Z,2.73
2022-09-01T22:11:53.009Z,2.60
2022-09-01T22:15:57.627Z,3.10
2022-09-01T22:20:02.193Z,3.00
2022-09-01T22:24:06.068Z,3.23
2022-09-01T22:28:09.575Z,2.83
2022-09-01T22:32:14.233Z,3.03
2022-09-01T22:36:22.839Z,3.00
2022-09-01T22:40:26.112Z,2.40
2022-09-01T22:44:29.366Z,3.03
2022-09-01T22:48:34.008Z,2.67
2022-09-01T22:52:37.697Z,2.63
2022-09-01T22:56:42.442Z,2.97
2022-09-01T23:00:48.023Z,2.90
2022-09-01T23:04:52.967Z,2.80
2022-09-01T23:08:56.564Z,2.80
2022-09-01T23:13:00.168Z,2.87
2022-09-01T23:17:03.476Z,2.70
2022-09-01T23:21:11.717Z,2.43
2022-09-01T23:25:17.059Z,3.00
2022-09-01T23:29:20.448Z,3.10
2022-09-01T23:33:25.405Z,3.30
2022-09-01T23:37:30.575Z,2.80
2022-09-01T23:41:35.782Z,2.80
2022-09-01T23:45:43.138Z,2.73
2022-09-01T23:49:46.553Z,3.57
2022-09-01T23:53:51.870Z,3.23
2022-09-01T23:57:55.159Z,2.60
